Overview Statistics Trail Chart Weather Telemetry Raw packets
 

This is the latest recevied weather packets stored in our database for station/object ALANSN-2. If no packets are shown the sender has not sent any weather packets the latest 10 day(s).

<< 4 5 6 7 8 9 10 >>
Time Temp. Humidity Pressure Rain* Wind** Luminosity Snow
1788534720 20° C 97% 1027.4 hPa 0 mm - 97 W/m² -
1788534417 19.44° C 97% 1027.3 hPa 0 mm - 108 W/m² -
1788534119 19.44° C 97% 1027.3 hPa 0 mm - 139 W/m² -
1788533820 19.44° C 97% 1027.3 hPa 0 mm - 139 W/m² -
1788533519 19.44° C 99% 1027.4 hPa 0 mm - 114 W/m² -
1788533217 18.89° C 99% 1027.2 hPa 0 mm - 93 W/m² -
1788532917 18.89° C 99% 1027.2 hPa 0 mm - 93 W/m² -
1788532619 18.89° C 99% 1027.7 hPa 0 mm - 81 W/m² -
1788532320 19.44° C 99% 1027.5 hPa 0 mm - 81 W/m² -
1788532020 19.44° C 99% 1027.5 hPa 0 mm - 81 W/m² -
1788531720 18.89° C 99% 1027.5 hPa 0 mm - 99 W/m² -
1788531418 18.89° C 99% 1027.2 hPa 0 mm - 111 W/m² -
1788531126 18.89° C 99% 1027.2 hPa 0 mm - 111 W/m² -
1788530827 18.33° C 99% 1027.1 hPa 0 mm - 113 W/m² -
1788530518 18.89° C 99% 1026.9 hPa 0 mm - 134 W/m² -
1788530217 18.89° C 99% 1026.9 hPa 0 mm - 134 W/m² -
1788529919 18.33° C 99% 1026.7 hPa 0 mm - 156 W/m² -
1788529619 17.78° C 99% 1027 hPa 0 mm - 104 W/m² -
1788529320 17.78° C 99% 1027 hPa 0 mm - 104 W/m² -
1788529020 17.78° C 99% 1026.8 hPa 0 mm - 122 W/m² -
1788528720 17.78° C 99% 1026.8 hPa 0 mm - 125 W/m² -
1788528420 17.78° C 99% 1026.8 hPa 0 mm - 125 W/m² -
1788528119 17.78° C 99% 1026.6 hPa 0 mm - 130 W/m² -
1788527518 17.22° C 99% 1026.5 hPa 0 mm - 111 W/m² -
1788527220 17.22° C 99% 1026.5 hPa 0 mm - 102 W/m² -

* Rain latest hour (hover to see other rain measurements)
** Current wind speed in m/s (hover to see current wind gust speed)